Nyk Atlas — H8TS — position and weather

sailwx.info

Track history (hours):
 
Tides and Currents Weather Stations Pressure Air Temp Water Temp Dewpoint Dewpoint Depression Visibility Wind Speed Wind Dir Waves Ship Positions

Nyk Atlas

Last reported at 2018-Apr-11 03:57 UTC. Time now 2018-Apr-21 00:24 UTC.
Position N 01°16' E 104°09'.
Warning: this ship's position is 9 days out of date.

Length 299.9 m; beam 40.1 m.

Type: Ship (hazmat cat D). MMSI: 354614000.

Date/timePositionNaut miles runAvg speedWind from/ knotsBaromVisibWave heightAir tempDewpointWater temp
2018-Apr-11 03:57N 01°16' E 104°09'816.4
2018-Apr-11 03:29N 01°15' E 104°02'814.2
2018-Apr-11 02:57N 01°13' E 103°54'511.3
2018-Apr-11 02:30N 01°12' E 103°49'4 8.4
2018-Apr-11 02:01N 01°15' E 103°46'1 2.8
2018-Apr-11 01:29N 01°16' E 103°46'0 0.0
2018-Apr-11 00:58N 01°16' E 103°46'0 0.1
2018-Apr-11 00:31N 01°16' E 103°47'0 0.0
2018-Apr-11 00:01N 01°16' E 103°47'0 0.1
2018-Apr-10 23:29N 01°16' E 103°46'0 0.0
2018-Apr-10 23:00N 01°16' E 103°46'0 0.1
2018-Apr-10 22:29N 01°16' E 103°47'0 0.0
2018-Apr-10 22:00N 01°16' E 103°47'0 0.0
2018-Apr-10 21:30N 01°16' E 103°47'0 0.0
2018-Apr-10 21:01N 01°16' E 103°47'0 0.0
2018-Apr-10 20:30N 01°16' E 103°47'0 0.0
2018-Apr-10 20:00N 01°16' E 103°47'0 0.0
2018-Apr-10 19:30N 01°16' E 103°47'0 0.1
2018-Apr-10 18:59N 01°16' E 103°46'0 0.0
2018-Apr-10 18:30N 01°16' E 103°46'0 0.0
2018-Apr-10 18:01N 01°16' E 103°46'0 0.0
2018-Apr-10 17:30N 01°16' E 103°46'0 0.0
2018-Apr-10 17:00N 01°16' E 103°46'0 0.1
2018-Apr-10 16:30N 01°16' E 103°47'0 0.1
2018-Apr-10 16:00N 01°16' E 103°46'0 0.0
2018-Apr-10 15:30N 01°16' E 103°46'0 0.1
2018-Apr-10 14:54N 01°16' E 103°47'0 0.0
2018-Apr-10 14:31N 01°16' E 103°47'0 0.0
2018-Apr-10 14:00N 01°16' E 103°47'0 0.0
2018-Apr-10 13:31N 01°16' E 103°47'0 0.1
2018-Apr-10 13:00N 01°16' E 103°46'0 0.1
2018-Apr-10 12:30N 01°16' E 103°47'0 0.1
2018-Apr-10 12:01N 01°16' E 103°46'0 0.0
2018-Apr-10 11:30N 01°16' E 103°46'0 0.0
2018-Apr-10 11:01N 01°16' E 103°46'0 0.0
2018-Apr-10 10:30N 01°16' E 103°46'0 0.1
2018-Apr-10 10:00N 01°16' E 103°47'0 0.0
2018-Apr-10 09:30N 01°16' E 103°47'0 0.0
2018-Apr-10 09:01N 01°16' E 103°47'0 0.1
2018-Apr-10 08:30N 01°16' E 103°46'0 0.0
2018-Apr-10 08:00N 01°16' E 103°46'0 0.0
2018-Apr-10 07:28N 01°16' E 103°46'0 0.0
2018-Apr-10 07:01N 01°16' E 103°46'0 0.1
2018-Apr-10 06:30N 01°16' E 103°47'0 0.1
2018-Apr-10 05:56N 01°16' E 103°46'0 0.0
2018-Apr-10 05:30N 01°16' E 103°46'0 0.0
2018-Apr-10 05:00N 01°16' E 103°46'0 0.1
2018-Apr-10 04:30N 01°16' E 103°47'0 0.1
2018-Apr-10 04:00N 01°16' E 103°46'0 0.1
2018-Apr-10 03:30N 01°16' E 103°47'0 0.0
2018-Apr-10 03:01N 01°16' E 103°47'0 0.3
2018-Apr-10 02:31N 01°16' E 103°47'2 3.6
2018-Apr-10 02:00N 01°15' E 103°45'510.5
2018-Apr-10 01:30N 01°13' E 103°41'5 9.3
2018-Apr-10 01:01N 01°12' E 103°36'2 4.8
2018-Apr-10 00:31N 01°11' E 103°34'3 5.3
2018-Apr-10 00:00N 01°10' E 103°31'3 6.8
2018-Apr-09 23:30N 01°10' E 103°28'510.0
2018-Apr-09 22:59N 01°13' E 103°23'810.2
2018-Apr-09 22:14N 01°17' E 103°17'310.5
2018-Apr-09 21:59N 01°19' E 103°15'  
2018-Apr-05 01:45N 14°31' E 070°05'19520.8
2018-Apr-04 16:23N 16°43' E 067°36'2120.1
2018-Apr-04 15:20N 16°57' E 067°20'1620.7
2018-Apr-04 14:32N 17°08' E 067°07'  
Track history (hours):
 
Tides and Currents Weather Stations Pressure Air Temp Water Temp Dewpoint Dewpoint Depression Visibility Wind Speed Wind Dir Waves Ship Positions

Nyk Atlas

Last reported at 2018-Apr-11 03:57 UTC. Time now 2018-Apr-21 00:24 UTC.
Position N 01°16' E 104°09'.
Warning: this ship's position is 9 days out of date.

Length 299.9 m; beam 40.1 m.

Type: Ship (hazmat cat D). MMSI: 354614000.

Date/timePositionNaut miles runAvg speedWind from/ knotsBaromVisibWave heightAir tempDewpointWater temp
2018-Apr-11 03:57N 01°16' E 104°09'816.4
2018-Apr-11 03:29N 01°15' E 104°02'814.2
2018-Apr-11 02:57N 01°13' E 103°54'511.3
2018-Apr-11 02:30N 01°12' E 103°49'4 8.4
2018-Apr-11 02:01N 01°15' E 103°46'1 2.8
2018-Apr-11 01:29N 01°16' E 103°46'0 0.0
2018-Apr-11 00:58N 01°16' E 103°46'0 0.1
2018-Apr-11 00:31N 01°16' E 103°47'0 0.0
2018-Apr-11 00:01N 01°16' E 103°47'0 0.1
2018-Apr-10 23:29N 01°16' E 103°46'0 0.0
2018-Apr-10 23:00N 01°16' E 103°46'0 0.1
2018-Apr-10 22:29N 01°16' E 103°47'0 0.0
2018-Apr-10 22:00N 01°16' E 103°47'0 0.0
2018-Apr-10 21:30N 01°16' E 103°47'0 0.0
2018-Apr-10 21:01N 01°16' E 103°47'0 0.0
2018-Apr-10 20:30N 01°16' E 103°47'0 0.0
2018-Apr-10 20:00N 01°16' E 103°47'0 0.0
2018-Apr-10 19:30N 01°16' E 103°47'0 0.1
2018-Apr-10 18:59N 01°16' E 103°46'0 0.0
2018-Apr-10 18:30N 01°16' E 103°46'0 0.0
2018-Apr-10 18:01N 01°16' E 103°46'0 0.0
2018-Apr-10 17:30N 01°16' E 103°46'0 0.0
2018-Apr-10 17:00N 01°16' E 103°46'0 0.1
2018-Apr-10 16:30N 01°16' E 103°47'0 0.1
2018-Apr-10 16:00N 01°16' E 103°46'0 0.0
2018-Apr-10 15:30N 01°16' E 103°46'0 0.1
2018-Apr-10 14:54N 01°16' E 103°47'0 0.0
2018-Apr-10 14:31N 01°16' E 103°47'0 0.0
2018-Apr-10 14:00N 01°16' E 103°47'0 0.0
2018-Apr-10 13:31N 01°16' E 103°47'0 0.1
2018-Apr-10 13:00N 01°16' E 103°46'0 0.1
2018-Apr-10 12:30N 01°16' E 103°47'0 0.1
2018-Apr-10 12:01N 01°16' E 103°46'0 0.0
2018-Apr-10 11:30N 01°16' E 103°46'0 0.0
2018-Apr-10 11:01N 01°16' E 103°46'0 0.0
2018-Apr-10 10:30N 01°16' E 103°46'0 0.1
2018-Apr-10 10:00N 01°16' E 103°47'0 0.0
2018-Apr-10 09:30N 01°16' E 103°47'0 0.0
2018-Apr-10 09:01N 01°16' E 103°47'0 0.1
2018-Apr-10 08:30N 01°16' E 103°46'0 0.0
2018-Apr-10 08:00N 01°16' E 103°46'0 0.0
2018-Apr-10 07:28N 01°16' E 103°46'0 0.0
2018-Apr-10 07:01N 01°16' E 103°46'0 0.1
2018-Apr-10 06:30N 01°16' E 103°47'0 0.1
2018-Apr-10 05:56N 01°16' E 103°46'0 0.0
2018-Apr-10 05:30N 01°16' E 103°46'0 0.0
2018-Apr-10 05:00N 01°16' E 103°46'0 0.1
2018-Apr-10 04:30N 01°16' E 103°47'0 0.1
2018-Apr-10 04:00N 01°16' E 103°46'0 0.1
2018-Apr-10 03:30N 01°16' E 103°47'0 0.0
2018-Apr-10 03:01N 01°16' E 103°47'0 0.3
2018-Apr-10 02:31N 01°16' E 103°47'2 3.6
2018-Apr-10 02:00N 01°15' E 103°45'510.5
2018-Apr-10 01:30N 01°13' E 103°41'5 9.3
2018-Apr-10 01:01N 01°12' E 103°36'2 4.8
2018-Apr-10 00:31N 01°11' E 103°34'3 5.3
2018-Apr-10 00:00N 01°10' E 103°31'3 6.8
2018-Apr-09 23:30N 01°10' E 103°28'510.0
2018-Apr-09 22:59N 01°13' E 103°23'810.2
2018-Apr-09 22:14N 01°17' E 103°17'310.5
2018-Apr-09 21:59N 01°19' E 103°15'  
2018-Apr-05 01:45N 14°31' E 070°05'19520.8
2018-Apr-04 16:23N 16°43' E 067°36'2120.1
2018-Apr-04 15:20N 16°57' E 067°20'1620.7
2018-Apr-04 14:32N 17°08' E 067°07'  

Dump ship's entire track history